Time;durP1;ratioP1;P1;durP2;ratioP2;P2;SDS_P1;SDS_P2;PMS_P1;PMS_P2;Temp;Humidity;BMP_temperature;BMP_pressure;BME280_temperature;BME280_humidity;BME280_pressure;Samples;Min_cycle;Max_cycle;Signal;HPM_P1;HPM_P2
2023/06/16 00:01:40;;;;;;;0.50;0.50;;;;;;;18.72;59.11;95407.69;4322008;32;20268;-66
2023/06/16 00:04:10;;;;;;;1.17;1.07;;;;;;;18.58;58.85;95406.47;4341953;32;20190;-65
2023/06/16 00:06:42;;;;;;;0.80;0.80;;;;;;;18.72;58.96;95409.59;4339477;32;20193;-66
2023/06/16 00:09:09;;;;;;;1.50;1.40;;;;;;;18.66;58.87;95403.69;4305655;32;20239;-66
2023/06/16 00:11:39;;;;;;;1.60;1.50;;;;;;;18.73;58.74;95408.47;4269859;32;20202;-65
2023/06/16 00:14:05;;;;;;;1.33;1.33;;;;;;;18.70;59.34;95407.25;4281104;32;20240;-65
2023/06/16 00:16:36;;;;;;;1.27;1.27;;;;;;;18.58;59.57;95409.16;4334751;32;20252;-65
2023/06/16 00:19:05;;;;;;;1.77;1.67;;;;;;;18.40;60.23;95408.69;4284057;32;20202;-65
2023/06/16 00:21:35;;;;;;;1.53;1.43;;;;;;;18.57;59.85;95411.06;4300088;32;20188;-65
2023/06/16 00:24:12;;;;;;;0.97;0.97;;;;;;;18.54;60.08;95403.69;4325547;32;20194;-65
2023/06/16 00:26:40;;;;;;;0.90;0.90;;;;;;;18.36;60.51;95405.87;4323734;32;20200;-66
2023/06/16 00:29:07;;;;;;;1.60;1.50;;;;;;;18.21;61.04;95406.59;4323944;32;20234;-66
2023/06/16 00:31:35;;;;;;;0.93;0.70;;;;;;;18.06;60.98;95401.94;4333907;32;20232;-66
2023/06/16 00:34:03;;;;;;;3.63;2.10;;;;;;;18.26;61.50;95402.91;4333008;32;20200;-65
2023/06/16 00:36:30;;;;;;;1.47;1.47;;;;;;;18.16;61.82;95396.09;4330862;32;20247;-65
2023/06/16 00:39:22;;;;;;;1.10;1.10;;;;;;;18.29;61.88;95397.63;4333091;32;20190;-65
2023/06/16 00:41:50;;;;;;;1.70;1.40;;;;;;;18.23;61.46;95395.53;4296149;32;20254;-66
2023/06/16 00:44:16;;;;;;;15.40;1.53;;;;;;;18.34;62.00;95400.06;4322490;32;20277;-66
2023/06/16 00:46:45;;;;;;;0.57;0.57;;;;;;;18.30;62.01;95391.13;4327585;32;20194;-67
2023/06/16 00:49:10;;;;;;;1.20;1.20;;;;;;;18.22;62.09;95392.06;4311025;32;20252;-67
2023/06/16 00:51:47;;;;;;;2.93;1.00;;;;;;;18.24;62.44;95394.41;4255048;32;20201;-66
2023/06/16 00:54:15;;;;;;;0.80;0.80;;;;;;;17.99;62.08;95401.72;4273961;32;20257;-66
2023/06/16 00:56:43;;;;;;;1.20;1.20;;;;;;;17.93;63.34;95393.09;4286202;32;20212;-66
2023/06/16 00:59:10;;;;;;;1.37;1.27;;;;;;;17.93;62.54;95397.69;4302891;32;20216;-66
2023/06/16 01:01:38;;;;;;;1.50;1.40;;;;;;;17.90;63.38;95395.69;4316000;32;20240;-66
2023/06/16 01:04:05;;;;;;;1.63;1.53;;;;;;;17.81;63.22;95406.56;4336536;32;20186;-66
2023/06/16 01:07:05;;;;;;;4.30;1.63;;;;;;;18.02;63.85;95406.41;4333822;32;20204;-65
2023/06/16 01:09:43;;;;;;;1.60;1.50;;;;;;;18.12;63.92;95403.25;4335950;32;20200;-66
2023/06/16 01:12:40;;;;;;;0.90;0.90;;;;;;;18.00;63.25;95400.59;4331939;32;20236;-66
2023/06/16 01:15:32;;;;;;;1.00;1.00;;;;;;;18.03;63.41;95391.88;4327313;32;20192;-65
2023/06/16 01:18:01;;;;;;;1.60;1.50;;;;;;;18.01;62.70;95399.47;4335533;32;20238;-66
2023/06/16 01:21:21;;;;;;;3.03;1.93;;;;;;;17.95;63.09;95398.16;4311442;32;20197;-65
2023/06/16 01:24:14;;;;;;;3.80;1.37;;;;;;;17.79;63.12;95398.84;4295327;32;20204;-66
2023/06/16 01:26:52;;;;;;;1.40;1.40;;;;;;;17.68;63.90;95395.03;4295680;32;20237;-65
2023/06/16 01:29:36;;;;;;;1.13;1.13;;;;;;;17.76;63.68;95388.00;4316967;32;20215;-65
2023/06/16 01:32:09;;;;;;;1.57;1.47;;;;;;;17.77;64.12;95390.34;4323973;32;20198;-65
2023/06/16 01:34:37;;;;;;;2.97;1.87;;;;;;;17.72;64.25;95387.88;4345328;32;20219;-65
2023/06/16 01:37:04;;;;;;;1.33;1.20;;;;;;;17.82;64.01;95386.66;4330432;32;20194;-65
2023/06/16 01:39:32;;;;;;;4.50;2.30;;;;;;;17.83;64.06;95383.63;4334922;32;20259;-64
2023/06/16 01:42:11;;;;;;;2.03;1.30;;;;;;;17.62;63.47;95391.00;4331408;32;20228;-65
2023/06/16 01:44:49;;;;;;;2.93;1.33;;;;;;;17.39;65.69;95387.19;4331985;32;20208;-65
2023/06/16 01:47:15;;;;;;;1.23;1.23;;;;;;;17.48;65.42;95388.63;4334686;32;20194;-65
2023/06/16 01:50:03;;;;;;;1.13;1.13;;;;;;;17.62;65.17;95380.25;4322045;32;20193;-65
2023/06/16 01:52:28;;;;;;;1.13;1.13;;;;;;;17.51;64.60;95387.19;4263221;32;20271;-64
2023/06/16 01:54:58;;;;;;;1.77;1.67;;;;;;;17.64;64.41;95380.75;4283367;33;20269;-66
2023/06/16 01:57:53;;;;;;;1.83;1.20;;;;;;;17.56;65.14;95378.91;4302777;32;20267;-66
2023/06/16 02:00:44;;;;;;;1.67;1.67;;;;;;;17.60;64.80;95382.50;4318994;32;20261;-66
2023/06/16 02:03:32;;;;;;;1.80;1.70;;;;;;;17.58;64.06;95389.31;4330316;32;20251;-67
2023/06/16 02:06:02;;;;;;;0.97;0.97;;;;;;;17.62;63.99;95390.22;4303357;32;20211;-65
2023/06/16 02:08:32;;;;;;;0.97;0.97;;;;;;;17.46;63.20;95390.06;4315307;32;20205;-66
2023/06/16 02:10:58;;;;;;;1.17;1.17;;;;;;;17.49;64.46;95384.84;4289016;32;20194;-65
2023/06/16 02:13:24;;;;;;;1.63;1.23;;;;;;;17.54;64.20;95386.50;4326925;32;20251;-66
2023/06/16 02:15:49;;;;;;;1.73;1.63;;;;;;;17.15;65.55;95396.78;4313725;32;20189;-66
2023/06/16 02:18:17;;;;;;;1.20;1.20;;;;;;;17.24;65.24;95398.56;4283111;32;20206;-65
2023/06/16 02:20:45;;;;;;;1.30;1.30;;;;;;;17.17;65.49;95399.91;4272921;32;20214;-66
2023/06/16 02:23:12;;;;;;;2.07;1.97;;;;;;;17.11;63.65;95395.06;4328511;32;20242;-66
2023/06/16 02:25:39;;;;;;;4.00;1.17;;;;;;;17.14;65.23;95400.56;4312787;32;20266;-65
2023/06/16 02:28:06;;;;;;;0.80;0.80;;;;;;;17.13;65.72;95393.62;4289462;32;20246;-65
2023/06/16 02:30:33;;;;;;;1.80;1.70;;;;;;;17.29;65.34;95388.41;4337026;32;20227;-65
2023/06/16 02:33:00;;;;;;;1.47;1.37;;;;;;;17.12;66.15;95384.03;4340923;32;20221;-64
2023/06/16 02:35:29;;;;;;;1.33;1.33;;;;;;;17.29;66.13;95388.41;4289795;32;20251;-64
2023/06/16 02:37:58;;;;;;;4.63;1.47;;;;;;;17.15;65.06;95391.41;4312756;32;20194;-65
2023/06/16 02:40:27;;;;;;;2.13;1.80;;;;;;;17.17;66.27;95389.19;4326915;32;20225;-65
2023/06/16 02:42:54;;;;;;;1.97;1.87;;;;;;;17.23;66.23;95391.66;4307327;32;20201;-65
2023/06/16 02:45:22;;;;;;;1.63;1.53;;;;;;;17.25;65.67;95392.09;4322016;32;20283;-65
2023/06/16 02:47:51;;;;;;;1.77;1.17;;;;;;;17.04;65.35;95386.81;4319865;32;20198;-66
2023/06/16 02:50:22;;;;;;;2.00;1.90;;;;;;;16.98;65.63;95393.50;4315334;32;20274;-65
2023/06/16 02:52:49;;;;;;;2.53;2.27;;;;;;;17.11;66.54;95401.22;4332744;32;20292;-66
2023/06/16 02:55:15;;;;;;;0.93;0.80;;;;;;;17.05;63.82;95394.50;4256543;32;20218;-65
2023/06/16 02:57:42;;;;;;;2.53;1.17;;;;;;;16.96;66.23;95393.03;4281596;32;20202;-66
2023/06/16 03:00:11;;;;;;;1.93;1.67;;;;;;;16.88;65.99;95407.31;4315893;32;20275;-66
2023/06/16 03:02:39;;;;;;;2.00;1.67;;;;;;;17.03;65.59;95406.69;4293501;32;20193;-66
2023/06/16 03:05:06;;;;;;;1.93;1.83;;;;;;;17.06;66.24;95414.84;4323764;32;20240;-66
2023/06/16 03:07:37;;;;;;;1.90;1.30;;;;;;;17.02;65.82;95408.59;4319493;32;20217;-65
2023/06/16 03:10:07;;;;;;;1.57;1.57;;;;;;;16.89;64.95;95409.66;4337993;32;20205;-65
2023/06/16 03:12:33;;;;;;;1.57;1.47;;;;;;;16.92;66.38;95402.84;4334460;32;20197;-66
2023/06/16 03:15:00;;;;;;;1.97;1.87;;;;;;;17.00;67.06;95410.03;4291170;32;20201;-65
2023/06/16 03:17:27;;;;;;;2.50;2.30;;;;;;;16.87;65.97;95400.38;4313336;32;20197;-65
2023/06/16 03:19:55;;;;;;;1.60;1.40;;;;;;;16.99;66.86;95403.91;4333865;32;20204;-66
2023/06/16 03:22:23;;;;;;;1.30;1.30;;;;;;;17.05;66.32;95399.88;4308893;32;20193;-66
2023/06/16 03:24:53;;;;;;;1.93;1.83;;;;;;;17.08;66.22;95395.75;4324006;32;20228;-66
2023/06/16 03:27:20;;;;;;;1.70;1.60;;;;;;;17.09;66.33;95403.44;4329793;32;20287;-66
2023/06/16 03:29:46;;;;;;;2.37;2.17;;;;;;;17.20;66.10;95405.72;4339551;32;20276;-66
2023/06/16 03:32:11;;;;;;;1.23;1.23;;;;;;;16.90;65.75;95403.19;4306673;32;20215;-66
2023/06/16 03:34:40;;;;;;;2.63;1.37;;;;;;;16.84;65.86;95397.25;4287639;32;20212;-66
2023/06/16 03:37:05;;;;;;;1.43;1.43;;;;;;;16.90;66.14;95405.09;4319807;32;20227;-66
2023/06/16 03:39:32;;;;;;;1.77;1.23;;;;;;;16.79;65.32;95412.78;4336934;32;20197;-66
2023/06/16 03:41:57;;;;;;;3.40;2.27;;;;;;;16.95;67.00;95407.56;4286572;32;20276;-65
2023/06/16 03:44:24;;;;;;;6.10;1.47;;;;;;;16.72;66.08;95415.97;4318657;32;20253;-66
2023/06/16 03:46:51;;;;;;;1.03;1.03;;;;;;;16.76;66.04;95413.44;4310968;32;20336;-66
2023/06/16 03:49:18;;;;;;;1.57;1.47;;;;;;;16.88;66.22;95421.50;4304564;32;20198;-66
2023/06/16 03:51:45;;;;;;;1.23;1.23;;;;;;;16.84;65.81;95418.69;4321195;32;20194;-66
2023/06/16 03:54:17;;;;;;;1.70;1.53;;;;;;;16.81;64.96;95423.94;4334475;32;20236;-66
2023/06/16 03:56:45;;;;;;;4.63;1.47;;;;;;;16.66;66.76;95430.69;4342353;32;20212;-65
2023/06/16 03:59:15;;;;;;;5.10;1.53;;;;;;;16.37;66.25;95431.53;4318001;32;20196;-66
2023/06/16 04:01:42;;;;;;;1.10;1.10;;;;;;;16.50;67.43;95432.38;4308994;32;20185;-66
2023/06/16 04:04:09;;;;;;;0.70;0.70;;;;;;;16.40;68.02;95436.25;4282374;32;20185;-66
2023/06/16 04:06:36;;;;;;;1.07;1.07;;;;;;;16.53;68.37;95438.97;4314390;32;20197;-66
2023/06/16 04:09:04;;;;;;;1.47;1.03;;;;;;;16.70;67.57;95438.84;4299687;32;20194;-65
2023/06/16 04:11:31;;;;;;;1.50;1.50;;;;;;;16.79;68.02;95439.56;4344543;32;20269;-65
2023/06/16 04:13:57;;;;;;;1.47;1.40;;;;;;;16.71;67.43;95441.19;4345247;32;20200;-64
2023/06/16 04:16:23;;;;;;;1.20;1.20;;;;;;;16.70;66.39;95439.62;4328121;32;20268;-65
2023/06/16 04:18:50;;;;;;;2.00;1.90;;;;;;;16.62;67.02;95443.16;4329194;32;20194;-65
2023/06/16 04:21:17;;;;;;;1.83;1.73;;;;;;;16.65;68.46;95445.19;4330793;32;20291;-66
2023/06/16 04:23:46;;;;;;;1.87;1.43;;;;;;;16.77;68.48;95455.19;4269598;32;20190;-66
2023/06/16 04:26:11;;;;;;;2.83;2.17;;;;;;;16.83;67.71;95443.91;4325449;32;20193;-65
2023/06/16 04:28:38;;;;;;;1.60;1.50;;;;;;;16.72;68.38;95450.81;4308434;32;20193;-65
2023/06/16 04:31:09;;;;;;;1.90;1.80;;;;;;;16.81;68.75;95448.06;4321619;32;20197;-65
2023/06/16 04:33:36;;;;;;;1.63;1.53;;;;;;;16.61;68.59;95451.50;4316651;32;20201;-65
2023/06/16 04:36:05;;;;;;;0.77;0.77;;;;;;;16.81;68.51;95456.09;4327979;32;20220;-65
2023/06/16 04:38:34;;;;;;;3.43;1.90;;;;;;;16.85;69.29;95446.25;4312350;32;20279;-65
2023/06/16 04:41:01;;;;;;;2.10;2.00;;;;;;;16.93;68.54;95448.09;4328686;32;20236;-65
2023/06/16 04:43:29;;;;;;;2.00;1.90;;;;;;;17.05;68.86;95452.69;4320798;32;20215;-64
2023/06/16 04:45:57;;;;;;;0.90;0.90;;;;;;;17.01;68.46;95455.28;4307865;32;20281;-64
2023/06/16 04:48:22;;;;;;;3.10;1.63;;;;;;;17.16;68.65;95451.19;4350792;32;20275;-66
2023/06/16 04:50:50;;;;;;;1.50;1.50;;;;;;;17.05;69.31;95450.78;4342470;32;20331;-68
2023/06/16 04:53:17;;;;;;;1.40;1.40;;;;;;;17.06;69.58;95448.91;4333997;32;20300;-65
2023/06/16 04:55:42;;;;;;;2.03;1.33;;;;;;;16.98;70.29;95452.47;4303297;32;20185;-66
2023/06/16 04:58:09;;;;;;;1.73;1.63;;;;;;;17.14;70.07;95448.81;4323813;32;20201;-65
2023/06/16 05:00:36;;;;;;;2.57;2.00;;;;;;;17.29;69.94;95444.72;4330856;32;20246;-66
2023/06/16 05:03:02;;;;;;;1.90;1.43;;;;;;;17.31;69.28;95447.06;4340823;32;20268;-65
2023/06/16 05:05:28;;;;;;;1.70;1.53;;;;;;;17.27;69.40;95446.16;4318790;32;20297;-65
2023/06/16 05:07:55;;;;;;;2.20;2.10;;;;;;;17.34;69.24;95446.41;4333667;32;20194;-65
2023/06/16 05:10:22;;;;;;;3.67;3.33;;;;;;;17.23;69.53;95446.06;4288932;32;20260;-66
2023/06/16 05:12:50;;;;;;;2.10;2.00;;;;;;;17.20;68.85;95451.31;4315063;32;20215;-66
2023/06/16 05:15:20;;;;;;;2.00;1.90;;;;;;;17.20;70.06;95445.94;4343580;32;20373;-66
2023/06/16 05:17:46;;;;;;;1.60;1.50;;;;;;;17.22;68.91;95449.84;4294523;32;20281;-65
2023/06/16 05:20:13;;;;;;;1.93;1.83;;;;;;;17.32;69.16;95444.06;4256944;32;20195;-68
2023/06/16 05:22:39;;;;;;;1.27;1.20;;;;;;;17.32;69.18;95448.63;4313127;32;20200;-66
2023/06/16 05:25:08;;;;;;;2.03;1.93;;;;;;;17.40;68.10;95445.09;4334967;32;20186;-65
2023/06/16 05:27:34;;;;;;;2.93;2.13;;;;;;;17.42;67.84;95449.00;4329206;32;20194;-64
2023/06/16 05:30:01;;;;;;;2.07;1.97;;;;;;;17.41;67.44;95446.66;4338773;32;20233;-65
2023/06/16 05:32:48;;;;;;;1.30;1.30;;;;;;;17.60;68.18;95448.78;4336475;32;20225;-64
2023/06/16 05:35:18;;;;;;;1.93;1.60;;;;;;;17.60;67.58;95454.16;4330177;32;20201;-66
2023/06/16 05:37:44;;;;;;;1.70;1.50;;;;;;;17.63;67.71;95448.13;4321569;32;20197;-65
2023/06/16 05:40:13;;;;;;;2.70;2.50;;;;;;;17.69;67.18;95447.56;4287571;32;20304;-65
2023/06/16 05:42:38;;;;;;;1.37;1.37;;;;;;;17.79;66.94;95449.84;4272895;32;20201;-66
2023/06/16 05:45:05;;;;;;;1.60;1.50;;;;;;;17.90;66.83;95452.84;4335727;32;20211;-65
2023/06/16 05:47:32;;;;;;;2.07;1.87;;;;;;;18.01;67.19;95439.75;4324958;32;20216;-65
2023/06/16 05:49:58;;;;;;;4.93;3.37;;;;;;;17.98;66.51;95443.09;4339530;32;20189;-65
2023/06/16 05:52:25;;;;;;;5.73;2.60;;;;;;;17.94;65.92;95452.94;4345853;32;20266;-65
2023/06/16 05:54:52;;;;;;;2.73;2.37;;;;;;;17.96;65.98;95456.09;4319283;32;20209;-65
2023/06/16 05:57:20;;;;;;;1.83;1.73;;;;;;;18.02;65.75;95460.91;4300788;32;20245;-65
2023/06/16 05:59:47;;;;;;;1.73;1.63;;;;;;;17.98;66.39;95453.84;4327105;32;20202;-65
2023/06/16 06:02:14;;;;;;;3.37;2.60;;;;;;;17.97;65.65;95458.44;4301609;32;20193;-65
2023/06/16 06:04:45;;;;;;;1.57;1.57;;;;;;;18.07;65.67;95452.63;4308231;32;20256;-65
2023/06/16 06:07:10;;;;;;;3.13;2.40;;;;;;;18.04;65.68;95458.66;4309835;32;20243;-65
2023/06/16 06:09:37;;;;;;;2.83;1.60;;;;;;;18.02;65.19;95450.16;4310661;32;20190;-65
2023/06/16 06:12:03;;;;;;;1.60;1.60;;;;;;;18.02;64.59;95462.81;4318353;32;20228;-65
2023/06/16 06:14:30;;;;;;;1.87;1.83;;;;;;;18.15;65.02;95453.59;4335246;32;20217;-64
2023/06/16 06:16:58;;;;;;;2.00;1.90;;;;;;;18.11;64.27;95460.75;4346801;32;20261;-65
2023/06/16 06:19:24;;;;;;;1.23;1.20;;;;;;;18.22;63.35;95461.88;4304666;32;20202;-66
2023/06/16 06:21:51;;;;;;;2.20;2.10;;;;;;;18.36;62.40;95470.34;4344612;32;20223;-65
2023/06/16 06:24:20;;;;;;;2.93;1.90;;;;;;;18.36;62.22;95464.97;4310681;32;20205;-65
2023/06/16 06:26:46;;;;;;;5.03;1.50;;;;;;;18.38;62.63;95472.72;4321890;32;20268;-65
2023/06/16 06:29:13;;;;;;;2.07;1.97;;;;;;;18.45;62.00;95468.34;4334425;32;20197;-65
2023/06/16 06:31:40;;;;;;;1.70;1.70;;;;;;;18.55;62.51;95470.53;4348928;32;20268;-65
2023/06/16 06:34:08;;;;;;;3.73;1.83;;;;;;;18.44;61.41;95474.81;4326654;32;20209;-65
2023/06/16 06:36:42;;;;;;;1.33;1.23;;;;;;;18.60;61.71;95468.75;4338169;32;20185;-65
2023/06/16 06:39:09;;;;;;;2.80;2.60;;;;;;;18.68;60.69;95475.91;4312057;32;20237;-65
2023/06/16 06:41:36;;;;;;;1.93;1.83;;;;;;;18.70;60.15;95473.69;4317274;32;20184;-65
2023/06/16 06:44:03;;;;;;;2.07;1.73;;;;;;;18.79;59.33;95483.16;4314023;32;20232;-65
2023/06/16 06:46:30;;;;;;;2.23;1.53;;;;;;;18.90;58.88;95480.00;4306173;32;20197;-65
2023/06/16 06:48:55;;;;;;;4.00;1.77;;;;;;;18.81;59.07;95485.50;4332652;32;20214;-65
2023/06/16 06:51:24;;;;;;;1.77;1.77;;;;;;;18.89;58.95;95487.28;4303140;32;20246;-66
2023/06/16 06:53:54;;;;;;;1.33;1.33;;;;;;;19.11;58.72;95488.66;4321545;32;20204;-65
2023/06/16 06:56:22;;;;;;;0.90;0.90;;;;;;;19.25;58.05;95488.22;4329039;32;20279;-65
2023/06/16 06:58:52;;;;;;;1.67;1.67;;;;;;;19.37;57.49;95486.25;4343872;32;20310;-65
2023/06/16 07:01:19;;;;;;;18.77;1.83;;;;;;;19.52;56.60;95488.22;4346880;32;20185;-65
2023/06/16 07:03:45;;;;;;;1.20;1.20;;;;;;;19.74;55.72;95484.16;4329872;32;20212;-65
2023/06/16 07:06:13;;;;;;;1.27;1.27;;;;;;;19.91;56.16;95485.72;4300042;32;20261;-65
2023/06/16 07:08:40;;;;;;;0.90;0.90;;;;;;;20.14;55.21;95491.25;4281010;32;20198;-65
2023/06/16 07:11:06;;;;;;;1.20;1.20;;;;;;;20.27;54.40;95484.62;4333725;32;20213;-65
2023/06/16 07:13:33;;;;;;;1.23;1.23;;;;;;;20.29;54.99;95485.06;4312426;32;20220;-65
2023/06/16 07:15:59;;;;;;;2.40;2.20;;;;;;;20.30;54.59;95483.91;4305155;32;20198;-64
2023/06/16 07:18:25;;;;;;;1.40;1.37;;;;;;;20.46;53.97;95492.00;4346739;32;20228;-65
2023/06/16 07:20:56;;;;;;;0.90;0.90;;;;;;;20.63;53.17;95482.72;4322265;32;20212;-65
2023/06/16 07:23:25;;;;;;;1.13;1.13;;;;;;;20.68;52.73;95485.16;4264095;32;20184;-65
2023/06/16 07:25:53;;;;;;;0.87;0.87;;;;;;;20.64;53.19;95487.75;4265133;32;20212;-66
2023/06/16 07:28:20;;;;;;;1.53;1.43;;;;;;;20.66;52.84;95484.72;4319380;32;20208;-65
2023/06/16 07:30:47;;;;;;;7.33;2.10;;;;;;;20.59;52.97;95491.50;4265402;32;20287;-65
2023/06/16 07:33:14;;;;;;;1.40;1.30;;;;;;;20.53;53.04;95484.84;4339455;32;20191;-65
2023/06/16 07:35:41;;;;;;;0.77;0.77;;;;;;;20.42;51.72;95486.53;4325057;32;20196;-65
2023/06/16 07:38:09;;;;;;;1.17;1.17;;;;;;;20.39;50.99;95489.13;4320302;32;20198;-65
2023/06/16 07:40:36;;;;;;;1.27;1.27;;;;;;;20.46;51.66;95492.78;4310070;32;20216;-65
2023/06/16 07:43:03;;;;;;;0.93;0.93;;;;;;;20.57;51.14;95491.09;4313564;32;20269;-64
2023/06/16 07:45:31;;;;;;;2.00;1.40;;;;;;;20.52;51.02;95485.19;4324598;32;20209;-65
2023/06/16 07:48:02;;;;;;;1.73;1.63;;;;;;;20.56;51.21;95494.16;4310803;32;20189;-65
2023/06/16 07:50:27;;;;;;;0.60;0.60;;;;;;;20.59;51.77;95486.13;4278732;32;20272;-64
2023/06/16 07:52:55;;;;;;;0.90;0.90;;;;;;;20.54;51.48;95486.41;4279539;32;20242;-66
2023/06/16 07:55:22;;;;;;;2.00;1.90;;;;;;;20.63;51.89;95482.72;4301349;32;20243;-65
2023/06/16 07:57:48;;;;;;;1.23;1.13;;;;;;;20.70;51.90;95480.97;4325044;32;20194;-65
2023/06/16 08:00:18;;;;;;;1.27;1.13;;;;;;;20.81;49.74;95481.94;4343504;32;20260;-65
2023/06/16 08:02:45;;;;;;;1.90;1.50;;;;;;;20.74;50.02;95487.22;4330666;32;20216;-65
2023/06/16 08:05:16;;;;;;;1.17;1.07;;;;;;;20.74;50.83;95483.75;4326807;32;20248;-65
2023/06/16 08:07:48;;;;;;;0.90;0.90;;;;;;;20.75;50.54;95478.00;4350616;32;20272;-65
2023/06/16 08:10:21;;;;;;;1.43;1.20;;;;;;;20.79;50.05;95484.22;4317305;32;20227;-65
2023/06/16 08:12:51;;;;;;;2.03;1.33;;;;;;;20.84;49.77;95483.94;4337486;32;20281;-65
2023/06/16 08:15:21;;;;;;;1.23;1.20;;;;;;;20.84;49.62;95486.63;4305767;32;20326;-65
2023/06/16 08:17:48;;;;;;;1.37;1.27;;;;;;;20.82;49.36;95477.34;4342066;32;20264;-65
2023/06/16 08:20:15;;;;;;;1.13;1.13;;;;;;;20.90;48.59;95482.53;4302680;32;20198;-65
2023/06/16 08:22:42;;;;;;;1.53;1.43;;;;;;;20.92;49.27;95479.47;4281077;32;20205;-65
2023/06/16 08:25:08;;;;;;;1.43;1.37;;;;;;;20.96;46.93;95480.34;4290100;32;20269;-65
2023/06/16 08:27:36;;;;;;;1.13;1.13;;;;;;;21.00;47.09;95472.28;4264362;32;20269;-65
2023/06/16 08:30:03;;;;;;;2.00;1.90;;;;;;;21.04;46.18;95473.94;4300090;32;20248;-65
2023/06/16 08:32:32;;;;;;;1.40;1.30;;;;;;;21.04;47.08;95465.06;4335095;32;20189;-65
2023/06/16 08:34:58;;;;;;;1.27;1.17;;;;;;;21.00;47.13;95473.06;4331672;32;20233;-65
2023/06/16 08:37:48;;;;;;;1.33;1.27;;;;;;;21.08;47.00;95463.22;4331465;32;20185;-65
2023/06/16 08:40:15;;;;;;;1.13;1.13;;;;;;;21.13;46.11;95471.03;4328189;32;20216;-65
2023/06/16 08:42:46;;;;;;;0.43;0.43;;;;;;;21.10;46.48;95472.50;4335142;32;20190;-65
2023/06/16 08:45:22;;;;;;;1.10;1.10;;;;;;;21.05;46.16;95464.69;4281384;32;20237;-65
2023/06/16 08:47:49;;;;;;;1.60;1.40;;;;;;;21.12;45.57;95469.47;4283843;33;20208;-65
2023/06/16 08:50:22;;;;;;;2.37;1.03;;;;;;;21.20;45.37;95463.06;4284149;32;20198;-66
2023/06/16 08:53:00;;;;;;;1.30;1.30;;;;;;;21.22;46.82;95464.28;4330869;32;20240;-63
2023/06/16 08:55:30;;;;;;;0.93;0.93;;;;;;;21.36;46.97;95452.19;4317334;32;20281;-63
2023/06/16 08:57:58;;;;;;;0.87;0.87;;;;;;;21.40;45.83;95453.81;4317248;32;20277;-63
2023/06/16 09:00:30;;;;;;;1.03;1.03;;;;;;;21.39;46.48;95446.09;4324641;32;20182;-63
2023/06/16 09:03:00;;;;;;;0.47;0.47;;;;;;;21.40;46.25;95456.53;4305524;32;20279;-63
2023/06/16 09:05:30;;;;;;;1.10;1.10;;;;;;;21.34;45.77;95455.25;4292288;32;23352;-63
2023/06/16 09:07:57;;;;;;;0.87;0.87;;;;;;;21.20;45.02;95439.56;4334877;32;20372;-63
2023/06/16 09:10:24;;;;;;;0.83;0.83;;;;;;;21.14;45.83;95446.38;4322726;32;20202;-63
2023/06/16 09:12:53;;;;;;;1.40;1.30;;;;;;;21.21;45.64;95441.13;4283301;32;20224;-63
2023/06/16 09:15:20;;;;;;;1.60;1.60;;;;;;;21.28;45.08;95437.78;4318940;32;20198;-63
2023/06/16 09:17:47;;;;;;;1.70;1.60;;;;;;;21.42;45.38;95445.34;4313442;32;20197;-63
2023/06/16 09:20:15;;;;;;;1.27;1.27;;;;;;;21.47;45.20;95431.56;4310325;32;20236;-63
2023/06/16 09:22:40;;;;;;;3.63;1.13;;;;;;;21.62;44.34;95427.94;4325049;32;20205;-63
2023/06/16 09:25:14;;;;;;;2.67;1.13;;;;;;;21.58;44.37;95429.81;4311868;32;20204;-64
2023/06/16 09:27:56;;;;;;;1.10;1.10;;;;;;;21.50;44.05;95441.63;4317483;32;20185;-63
2023/06/16 09:30:34;;;;;;;3.93;1.70;;;;;;;21.47;44.38;95426.94;4291604;32;20295;-63
2023/06/16 09:33:05;;;;;;;1.00;1.00;;;;;;;21.33;44.59;95434.78;4292880;32;20269;-63
2023/06/16 09:35:36;;;;;;;1.23;1.23;;;;;;;21.42;44.06;95419.13;4282532;32;20224;-63
2023/06/16 09:38:03;;;;;;;1.17;1.17;;;;;;;21.39;44.74;95427.97;4287023;32;20201;-63
2023/06/16 09:40:31;;;;;;;0.80;0.80;;;;;;;21.36;44.94;95415.19;4267424;32;20314;-63
2023/06/16 09:43:04;;;;;;;1.47;1.37;;;;;;;21.27;45.01;95420.03;4288223;32;20200;-63
2023/06/16 09:45:32;;;;;;;0.60;0.60;;;;;;;21.21;45.56;95421.44;4271550;32;20394;-63
2023/06/16 09:48:03;;;;;;;0.80;0.80;;;;;;;21.15;46.29;95412.87;4294667;32;20203;-63
2023/06/16 09:50:32;;;;;;;0.87;0.87;;;;;;;21.21;45.65;95408.75;4320697;32;20204;-63
2023/06/16 09:52:58;;;;;;;0.60;0.60;;;;;;;21.46;46.13;95408.38;4328584;32;20280;-63
2023/06/16 09:55:27;;;;;;;0.90;0.90;;;;;;;21.68;45.71;95407.59;4335261;32;20212;-63
2023/06/16 09:58:17;;;;;;;1.10;1.10;;;;;;;21.69;43.56;95400.28;4302325;32;20216;-63
2023/06/16 10:00:42;;;;;;;0.87;0.87;;;;;;;21.58;44.38;95405.53;4295041;32;20300;-63
2023/06/16 10:03:09;;;;;;;1.10;1.10;;;;;;;21.62;44.65;95411.72;4268680;32;20217;-63
2023/06/16 10:05:37;;;;;;;1.67;1.57;;;;;;;21.62;42.51;95404.41;4308515;32;20295;-63
2023/06/16 10:08:06;;;;;;;1.00;1.00;;;;;;;21.49;42.43;95404.97;4294286;32;20245;-63
2023/06/16 10:10:38;;;;;;;1.10;1.07;;;;;;;21.47;43.17;95401.84;4284624;32;20236;-63
2023/06/16 10:13:12;;;;;;;1.20;1.10;;;;;;;21.43;41.84;95406.41;4275274;32;20205;-63
2023/06/16 10:15:42;;;;;;;1.10;1.10;;;;;;;21.42;43.05;95404.84;4256714;32;20252;-63
2023/06/16 10:18:11;;;;;;;1.23;1.23;;;;;;;21.36;43.57;95399.00;4309017;32;20199;-63
2023/06/16 10:20:38;;;;;;;0.93;0.93;;;;;;;21.35;44.23;95392.03;4299201;32;20189;-64
2023/06/16 10:23:06;;;;;;;1.37;1.27;;;;;;;21.26;44.99;95394.94;4307126;32;20211;-63
2023/06/16 10:25:38;;;;;;;1.33;1.13;;;;;;;21.24;44.69;95388.34;4302726;32;20338;-63
2023/06/16 10:28:07;;;;;;;1.63;1.53;;;;;;;21.23;44.03;95401.06;4301219;32;20202;-63
2023/06/16 10:30:35;;;;;;;1.20;1.20;;;;;;;21.32;43.69;95392.75;4232807;33;20259;-63
2023/06/16 10:33:25;;;;;;;1.13;1.13;;;;;;;21.44;42.77;95389.06;4332443;32;20212;-63
2023/06/16 10:35:53;;;;;;;0.80;0.80;;;;;;;21.58;43.53;95394.72;4311291;32;20229;-63
2023/06/16 10:38:37;;;;;;;0.60;0.60;;;;;;;21.75;42.03;95396.91;4282893;32;20237;-63
2023/06/16 10:41:06;;;;;;;0.93;0.93;;;;;;;21.87;40.82;95385.91;4317455;32;20185;-63
2023/06/16 10:43:34;;;;;;;0.90;0.90;;;;;;;21.93;41.46;95379.03;4324084;32;20205;-63
2023/06/16 10:46:16;;;;;;;0.70;0.70;;;;;;;21.95;40.63;95389.50;4312939;32;26081;-63
2023/06/16 10:49:10;;;;;;;1.40;1.33;;;;;;;22.00;41.76;95383.00;4298532;32;20237;-63
2023/06/16 10:51:57;;;;;;;0.93;0.93;;;;;;;22.09;39.15;95376.19;4258237;32;20212;-64
2023/06/16 10:54:48;;;;;;;0.73;0.73;;;;;;;22.28;38.86;95372.59;4309349;32;20185;-63
2023/06/16 10:57:16;;;;;;;0.97;0.97;;;;;;;22.44;38.17;95375.91;4324814;32;20201;-63
2023/06/16 10:59:55;;;;;;;0.87;0.87;;;;;;;22.43;36.16;95377.06;4335644;32;20231;-63
2023/06/16 11:02:30;;;;;;;0.93;0.93;;;;;;;22.38;35.36;95365.78;4295626;32;20228;-64
2023/06/16 11:05:10;;;;;;;1.00;0.93;;;;;;;22.53;36.60;95362.88;4343649;32;20261;-63
2023/06/16 11:07:53;;;;;;;0.43;0.43;;;;;;;22.73;36.70;95360.75;4319952;32;20223;-64
2023/06/16 11:10:24;;;;;;;1.53;0.83;;;;;;;22.74;34.92;95365.03;4283096;32;20261;-63
2023/06/16 11:12:50;;;;;;;1.00;1.00;;;;;;;22.69;35.44;95383.50;4293838;32;20254;-63
2023/06/16 11:15:20;;;;;;;2.47;1.27;;;;;;;22.49;35.90;95363.97;4302177;32;20193;-63
2023/06/16 11:17:49;;;;;;;1.00;1.00;;;;;;;22.36;36.13;95366.13;4293398;32;20191;-63
2023/06/16 11:20:26;;;;;;;1.00;1.00;;;;;;;22.25;36.62;95373.31;4311329;32;20189;-64
2023/06/16 11:22:53;;;;;;;1.87;1.10;;;;;;;22.10;37.10;95371.56;4309825;32;20288;-62
2023/06/16 11:25:20;;;;;;;0.90;0.90;;;;;;;22.03;36.20;95377.66;4297629;32;20197;-63
2023/06/16 11:27:47;;;;;;;0.60;0.60;;;;;;;21.95;35.61;95398.37;4310627;32;20236;-63
2023/06/16 11:30:13;;;;;;;1.43;1.43;;;;;;;22.01;34.22;95384.59;4265558;32;20261;-63
2023/06/16 11:32:40;;;;;;;1.53;1.33;;;;;;;21.94;33.92;95391.41;4303230;32;20193;-63
2023/06/16 11:35:08;;;;;;;1.60;1.50;;;;;;;21.89;34.79;95380.13;4295486;32;20236;-65
2023/06/16 11:37:59;;;;;;;1.13;1.13;;;;;;;21.91;34.99;95381.31;4307394;32;20280;-63
2023/06/16 11:40:30;;;;;;;0.77;0.77;;;;;;;22.04;35.90;95379.22;4309495;32;20217;-63
2023/06/16 11:43:02;;;;;;;1.07;1.07;;;;;;;22.24;35.84;95374.47;4342804;32;20272;-63
2023/06/16 11:45:36;;;;;;;0.63;0.63;;;;;;;22.32;36.33;95378.03;4301468;32;20192;-63
2023/06/16 11:48:06;;;;;;;1.97;1.87;;;;;;;22.43;36.29;95368.94;4306683;32;20201;-63